LDPV weather

Vrsar Crljenka Airport
Vrsar, Istria County, Croatia

Public forecast

Using degrees Celsius for public forecast. Weather courtesy of forecast.io.

Closest aviation weather report (METAR) to Vrsar Crljenka Airport

Closest report is Pula Airport, 19.4 nm (35.9 km) SE. Retrieved 2019/12/15 04:30 UTC (18 minutes ago):

LDPL 150430Z 10005KT CAVOK 11/10 Q1012 NOSIG

Closest aviation forecast (TAF) to Vrsar Crljenka Airport

Closest forecast is Pula Airport, 19.4 nm (35.9 km) SE. Retrieved 2019-12-15 00:00 UTC (5 hours ago):

TAF LDPL 142326Z 1500/1600 09006KT 9999 SCT025 TX15/1513Z TN07/1500Z BECMG 1508/1510 23010KT BECMG 1516/1518 VRB02KT PROB30 1520/1600 2000 MIFG BR BKN005